sensor_id;sensor_type;location;lat;lon;timestamp;P1;durP1;ratioP1;P2;durP2;ratioP2
20888;SDS011;10604;51.976;7.594;2023-05-16T00:01:39;7.83;;;7.13;;
20888;SDS011;10604;51.976;7.594;2023-05-16T00:04:04;8.23;;;7.50;;
20888;SDS011;10604;51.976;7.594;2023-05-16T00:06:30;8.40;;;7.50;;
20888;SDS011;10604;51.976;7.594;2023-05-16T00:08:56;8.52;;;7.57;;
20888;SDS011;10604;51.976;7.594;2023-05-16T00:11:21;8.30;;;7.50;;
20888;SDS011;10604;51.976;7.594;2023-05-16T00:13:47;8.45;;;7.53;;
20888;SDS011;10604;51.976;7.594;2023-05-16T00:16:12;8.30;;;7.37;;
20888;SDS011;10604;51.976;7.594;2023-05-16T00:18:38;8.32;;;7.43;;
20888;SDS011;10604;51.976;7.594;2023-05-16T00:21:04;7.30;;;6.70;;
20888;SDS011;10604;51.976;7.594;2023-05-16T00:23:30;7.75;;;6.75;;
20888;SDS011;10604;51.976;7.594;2023-05-16T00:25:56;6.57;;;5.88;;
20888;SDS011;10604;51.976;7.594;2023-05-16T00:28:21;6.43;;;5.83;;
20888;SDS011;10604;51.976;7.594;2023-05-16T00:30:47;6.00;;;5.40;;
20888;SDS011;10604;51.976;7.594;2023-05-16T00:33:12;6.10;;;5.50;;
20888;SDS011;10604;51.976;7.594;2023-05-16T00:35:38;6.50;;;5.27;;
20888;SDS011;10604;51.976;7.594;2023-05-16T00:38:03;5.75;;;5.25;;
20888;SDS011;10604;51.976;7.594;2023-05-16T00:40:29;5.77;;;5.20;;
20888;SDS011;10604;51.976;7.594;2023-05-16T00:42:54;6.27;;;5.67;;
20888;SDS011;10604;51.976;7.594;2023-05-16T00:45:20;5.15;;;4.50;;
20888;SDS011;10604;51.976;7.594;2023-05-16T00:47:45;4.40;;;4.00;;
20888;SDS011;10604;51.976;7.594;2023-05-16T00:50:11;4.50;;;3.60;;
20888;SDS011;10604;51.976;7.594;2023-05-16T00:52:36;4.10;;;3.40;;
20888;SDS011;10604;51.976;7.594;2023-05-16T00:55:02;3.30;;;3.00;;
20888;SDS011;10604;51.976;7.594;2023-05-16T00:57:28;3.85;;;3.40;;
20888;SDS011;10604;51.976;7.594;2023-05-16T00:59:54;3.15;;;2.85;;
20888;SDS011;10604;51.976;7.594;2023-05-16T01:02:19;3.67;;;1.90;;
20888;SDS011;10604;51.976;7.594;2023-05-16T01:04:44;1.87;;;1.10;;
20888;SDS011;10604;51.976;7.594;2023-05-16T01:07:12;2.40;;;1.08;;
20888;SDS011;10604;51.976;7.594;2023-05-16T01:09:38;2.40;;;1.00;;
20888;SDS011;10604;51.976;7.594;2023-05-16T01:12:15;1.00;;;0.88;;
20888;SDS011;10604;51.976;7.594;2023-05-16T01:25:25;4.40;;;2.00;;
20888;SDS011;10604;51.976;7.594;2023-05-16T01:28:00;5.53;;;2.22;;
20888;SDS011;10604;51.976;7.594;2023-05-16T01:30:30;5.35;;;2.47;;
20888;SDS011;10604;51.976;7.594;2023-05-16T01:32:59;5.57;;;2.50;;
20888;SDS011;10604;51.976;7.594;2023-05-16T01:35:24;7.60;;;2.63;;
20888;SDS011;10604;51.976;7.594;2023-05-16T01:43:13;6.47;;;3.10;;
20888;SDS011;10604;51.976;7.594;2023-05-16T01:45:44;8.75;;;3.10;;
20888;SDS011;10604;51.976;7.594;2023-05-16T01:48:15;6.82;;;3.40;;
20888;SDS011;10604;51.976;7.594;2023-05-16T01:50:48;13.07;;;3.45;;
20888;SDS011;10604;51.976;7.594;2023-05-16T01:53:19;7.60;;;3.17;;
20888;SDS011;10604;51.976;7.594;2023-05-16T01:56:10;9.63;;;3.38;;
20888;SDS011;10604;51.976;7.594;2023-05-16T01:58:40;8.73;;;3.80;;
20888;SDS011;10604;51.976;7.594;2023-05-16T02:01:05;9.40;;;4.15;;
20888;SDS011;10604;51.976;7.594;2023-05-16T02:03:31;8.80;;;4.40;;
20888;SDS011;10604;51.976;7.594;2023-05-16T02:05:57;10.63;;;4.40;;
20888;SDS011;10604;51.976;7.594;2023-05-16T02:08:22;8.23;;;4.33;;
20888;SDS011;10604;51.976;7.594;2023-05-16T02:10:49;10.93;;;5.05;;
20888;SDS011;10604;51.976;7.594;2023-05-16T02:13:14;9.30;;;4.23;;
20888;SDS011;10604;51.976;7.594;2023-05-16T02:15:39;10.03;;;4.57;;
20888;SDS011;10604;51.976;7.594;2023-05-16T02:18:05;12.70;;;4.50;;
20888;SDS011;10604;51.976;7.594;2023-05-16T02:20:31;11.00;;;4.53;;
20888;SDS011;10604;51.976;7.594;2023-05-16T02:22:57;11.52;;;4.07;;
20888;SDS011;10604;51.976;7.594;2023-05-16T02:25:23;12.90;;;4.15;;
20888;SDS011;10604;51.976;7.594;2023-05-16T02:27:48;12.37;;;4.27;;
20888;SDS011;10604;51.976;7.594;2023-05-16T02:30:13;12.73;;;4.18;;
20888;SDS011;10604;51.976;7.594;2023-05-16T02:32:39;11.23;;;4.30;;
20888;SDS011;10604;51.976;7.594;2023-05-16T02:35:05;12.60;;;4.20;;
20888;SDS011;10604;51.976;7.594;2023-05-16T02:37:31;13.82;;;4.18;;
20888;SDS011;10604;51.976;7.594;2023-05-16T02:39:56;11.60;;;4.17;;
20888;SDS011;10604;51.976;7.594;2023-05-16T02:42:21;12.03;;;3.93;;
20888;SDS011;10604;51.976;7.594;2023-05-16T02:44:47;12.27;;;4.13;;
20888;SDS011;10604;51.976;7.594;2023-05-16T02:47:12;13.20;;;3.80;;
20888;SDS011;10604;51.976;7.594;2023-05-16T02:49:37;13.18;;;4.00;;
20888;SDS011;10604;51.976;7.594;2023-05-16T02:52:03;14.10;;;4.17;;
20888;SDS011;10604;51.976;7.594;2023-05-16T02:54:29;14.07;;;4.00;;
20888;SDS011;10604;51.976;7.594;2023-05-16T02:56:54;12.20;;;3.80;;
20888;SDS011;10604;51.976;7.594;2023-05-16T02:59:19;15.00;;;3.77;;
20888;SDS011;10604;51.976;7.594;2023-05-16T03:01:45;14.30;;;4.40;;
20888;SDS011;10604;51.976;7.594;2023-05-16T03:04:10;11.77;;;3.93;;
20888;SDS011;10604;51.976;7.594;2023-05-16T03:06:36;11.30;;;3.60;;
20888;SDS011;10604;51.976;7.594;2023-05-16T03:09:01;18.43;;;4.20;;
20888;SDS011;10604;51.976;7.594;2023-05-16T03:11:27;12.98;;;4.03;;
20888;SDS011;10604;51.976;7.594;2023-05-16T03:13:53;15.43;;;4.23;;
20888;SDS011;10604;51.976;7.594;2023-05-16T03:16:18;14.27;;;4.07;;
20888;SDS011;10604;51.976;7.594;2023-05-16T03:18:44;13.80;;;3.70;;
20888;SDS011;10604;51.976;7.594;2023-05-16T03:21:09;15.35;;;4.28;;
20888;SDS011;10604;51.976;7.594;2023-05-16T03:23:34;14.73;;;3.90;;
20888;SDS011;10604;51.976;7.594;2023-05-16T03:26:00;19.40;;;3.57;;
20888;SDS011;10604;51.976;7.594;2023-05-16T03:28:25;15.60;;;3.63;;
20888;SDS011;10604;51.976;7.594;2023-05-16T03:30:51;13.25;;;3.65;;
20888;SDS011;10604;51.976;7.594;2023-05-16T03:33:17;14.27;;;4.00;;
20888;SDS011;10604;51.976;7.594;2023-05-16T03:35:43;14.32;;;4.25;;
20888;SDS011;10604;51.976;7.594;2023-05-16T03:38:09;15.27;;;3.73;;
20888;SDS011;10604;51.976;7.594;2023-05-16T03:40:34;13.27;;;3.55;;
20888;SDS011;10604;51.976;7.594;2023-05-16T03:43:00;13.77;;;3.90;;
20888;SDS011;10604;51.976;7.594;2023-05-16T03:45:25;13.70;;;3.63;;
20888;SDS011;10604;51.976;7.594;2023-05-16T03:47:51;17.20;;;3.92;;
20888;SDS011;10604;51.976;7.594;2023-05-16T03:50:16;13.83;;;3.70;;
20888;SDS011;10604;51.976;7.594;2023-05-16T03:52:42;14.90;;;3.80;;
20888;SDS011;10604;51.976;7.594;2023-05-16T03:55:08;16.00;;;3.88;;
20888;SDS011;10604;51.976;7.594;2023-05-16T03:57:35;13.93;;;3.42;;
20888;SDS011;10604;51.976;7.594;2023-05-16T04:00:02;16.85;;;3.92;;
20888;SDS011;10604;51.976;7.594;2023-05-16T04:02:31;16.52;;;3.83;;
20888;SDS011;10604;51.976;7.594;2023-05-16T04:04:57;12.93;;;3.50;;
20888;SDS011;10604;51.976;7.594;2023-05-16T04:07:22;15.40;;;3.58;;
20888;SDS011;10604;51.976;7.594;2023-05-16T04:09:47;14.80;;;3.60;;
20888;SDS011;10604;51.976;7.594;2023-05-16T04:12:13;15.33;;;3.30;;
20888;SDS011;10604;51.976;7.594;2023-05-16T04:14:38;14.83;;;3.40;;
20888;SDS011;10604;51.976;7.594;2023-05-16T04:17:03;16.00;;;3.65;;
20888;SDS011;10604;51.976;7.594;2023-05-16T04:19:29;13.87;;;3.67;;
20888;SDS011;10604;51.976;7.594;2023-05-16T04:21:54;14.07;;;3.17;;
20888;SDS011;10604;51.976;7.594;2023-05-16T04:24:20;14.63;;;2.83;;
20888;SDS011;10604;51.976;7.594;2023-05-16T04:26:45;11.00;;;2.97;;
20888;SDS011;10604;51.976;7.594;2023-05-16T04:29:11;13.77;;;3.15;;
20888;SDS011;10604;51.976;7.594;2023-05-16T04:31:38;13.52;;;3.28;;
20888;SDS011;10604;51.976;7.594;2023-05-16T04:34:03;15.43;;;3.38;;
20888;SDS011;10604;51.976;7.594;2023-05-16T04:36:29;14.27;;;3.80;;
20888;SDS011;10604;51.976;7.594;2023-05-16T04:38:55;9.77;;;3.13;;
20888;SDS011;10604;51.976;7.594;2023-05-16T04:41:21;13.80;;;3.38;;
20888;SDS011;10604;51.976;7.594;2023-05-16T04:43:47;13.05;;;3.00;;
20888;SDS011;10604;51.976;7.594;2023-05-16T04:46:13;9.60;;;2.90;;
20888;SDS011;10604;51.976;7.594;2023-05-16T04:48:39;13.80;;;3.20;;
20888;SDS011;10604;51.976;7.594;2023-05-16T04:51:05;11.43;;;3.30;;
20888;SDS011;10604;51.976;7.594;2023-05-16T04:53:30;12.85;;;3.22;;
20888;SDS011;10604;51.976;7.594;2023-05-16T04:55:56;12.10;;;3.07;;
20888;SDS011;10604;51.976;7.594;2023-05-16T04:58:21;11.23;;;2.80;;
20888;SDS011;10604;51.976;7.594;2023-05-16T05:00:48;9.70;;;2.80;;
20888;SDS011;10604;51.976;7.594;2023-05-16T05:03:14;15.43;;;3.22;;
20888;SDS011;10604;51.976;7.594;2023-05-16T05:05:40;13.63;;;2.97;;
20888;SDS011;10604;51.976;7.594;2023-05-16T05:08:05;11.73;;;2.80;;
20888;SDS011;10604;51.976;7.594;2023-05-16T05:10:31;13.83;;;2.93;;
20888;SDS011;10604;51.976;7.594;2023-05-16T05:12:56;11.25;;;2.90;;
20888;SDS011;10604;51.976;7.594;2023-05-16T05:15:22;11.87;;;2.93;;
20888;SDS011;10604;51.976;7.594;2023-05-16T05:17:48;13.77;;;3.17;;
20888;SDS011;10604;51.976;7.594;2023-05-16T05:20:13;11.77;;;3.00;;
20888;SDS011;10604;51.976;7.594;2023-05-16T05:22:38;13.43;;;3.10;;
20888;SDS011;10604;51.976;7.594;2023-05-16T05:25:04;11.95;;;2.78;;
20888;SDS011;10604;51.976;7.594;2023-05-16T05:27:30;11.33;;;2.90;;
20888;SDS011;10604;51.976;7.594;2023-05-16T05:29:55;12.75;;;3.20;;
20888;SDS011;10604;51.976;7.594;2023-05-16T05:32:21;13.23;;;3.00;;
20888;SDS011;10604;51.976;7.594;2023-05-16T05:34:46;12.50;;;3.00;;
20888;SDS011;10604;51.976;7.594;2023-05-16T05:37:11;10.00;;;2.73;;
20888;SDS011;10604;51.976;7.594;2023-05-16T05:39:37;12.50;;;3.03;;
20888;SDS011;10604;51.976;7.594;2023-05-16T05:42:03;16.25;;;3.25;;
20888;SDS011;10604;51.976;7.594;2023-05-16T05:44:29;11.63;;;3.00;;
20888;SDS011;10604;51.976;7.594;2023-05-16T05:46:54;13.98;;;2.95;;
20888;SDS011;10604;51.976;7.594;2023-05-16T05:49:21;11.47;;;2.80;;
20888;SDS011;10604;51.976;7.594;2023-05-16T05:51:48;12.65;;;2.95;;
20888;SDS011;10604;51.976;7.594;2023-05-16T05:54:16;9.90;;;2.88;;
20888;SDS011;10604;51.976;7.594;2023-05-16T05:56:45;11.18;;;2.90;;
20888;SDS011;10604;51.976;7.594;2023-05-16T05:59:10;12.60;;;3.10;;
20888;SDS011;10604;51.976;7.594;2023-05-16T06:01:36;10.57;;;2.90;;
20888;SDS011;10604;51.976;7.594;2023-05-16T06:04:02;11.07;;;2.50;;
20888;SDS011;10604;51.976;7.594;2023-05-16T06:06:27;13.90;;;2.90;;
20888;SDS011;10604;51.976;7.594;2023-05-16T06:08:53;12.03;;;2.73;;
20888;SDS011;10604;51.976;7.594;2023-05-16T06:11:19;9.95;;;2.88;;
20888;SDS011;10604;51.976;7.594;2023-05-16T06:13:45;12.55;;;2.92;;
20888;SDS011;10604;51.976;7.594;2023-05-16T06:16:10;11.43;;;2.83;;
20888;SDS011;10604;51.976;7.594;2023-05-16T06:18:36;11.27;;;2.60;;
20888;SDS011;10604;51.976;7.594;2023-05-16T06:21:01;9.90;;;2.90;;
20888;SDS011;10604;51.976;7.594;2023-05-16T06:23:27;14.38;;;2.80;;
20888;SDS011;10604;51.976;7.594;2023-05-16T06:25:52;13.40;;;2.63;;
20888;SDS011;10604;51.976;7.594;2023-05-16T06:28:18;11.17;;;2.37;;
20888;SDS011;10604;51.976;7.594;2023-05-16T06:30:43;10.17;;;2.30;;
20888;SDS011;10604;51.976;7.594;2023-05-16T06:33:08;11.20;;;2.90;;
20888;SDS011;10604;51.976;7.594;2023-05-16T06:35:34;8.83;;;2.53;;
20888;SDS011;10604;51.976;7.594;2023-05-16T06:37:59;12.27;;;2.90;;
20888;SDS011;10604;51.976;7.594;2023-05-16T06:40:25;11.70;;;2.72;;
20888;SDS011;10604;51.976;7.594;2023-05-16T06:42:50;13.53;;;2.90;;
20888;SDS011;10604;51.976;7.594;2023-05-16T06:45:16;11.97;;;2.70;;
20888;SDS011;10604;51.976;7.594;2023-05-16T06:47:41;10.17;;;2.67;;
20888;SDS011;10604;51.976;7.594;2023-05-16T06:50:06;11.52;;;2.50;;
20888;SDS011;10604;51.976;7.594;2023-05-16T06:52:32;14.37;;;2.63;;
20888;SDS011;10604;51.976;7.594;2023-05-16T06:54:57;8.90;;;2.40;;
20888;SDS011;10604;51.976;7.594;2023-05-16T06:57:23;12.83;;;2.47;;
20888;SDS011;10604;51.976;7.594;2023-05-16T06:59:48;9.50;;;2.47;;
20888;SDS011;10604;51.976;7.594;2023-05-16T07:02:14;10.33;;;2.43;;
20888;SDS011;10604;51.976;7.594;2023-05-16T07:04:39;10.83;;;2.67;;
20888;SDS011;10604;51.976;7.594;2023-05-16T07:07:04;10.37;;;2.40;;
20888;SDS011;10604;51.976;7.594;2023-05-16T07:09:32;10.32;;;2.08;;
20888;SDS011;10604;51.976;7.594;2023-05-16T07:11:57;8.53;;;2.40;;
20888;SDS011;10604;51.976;7.594;2023-05-16T07:14:23;10.20;;;2.05;;
20888;SDS011;10604;51.976;7.594;2023-05-16T07:16:48;9.93;;;2.27;;
20888;SDS011;10604;51.976;7.594;2023-05-16T07:19:15;8.75;;;1.95;;
20888;SDS011;10604;51.976;7.594;2023-05-16T07:21:41;5.53;;;1.77;;
20888;SDS011;10604;51.976;7.594;2023-05-16T07:24:06;9.23;;;2.20;;
20888;SDS011;10604;51.976;7.594;2023-05-16T07:26:31;7.55;;;2.00;;
20888;SDS011;10604;51.976;7.594;2023-05-16T07:28:57;6.97;;;2.10;;
20888;SDS011;10604;51.976;7.594;2023-05-16T07:31:22;8.40;;;2.13;;
20888;SDS011;10604;51.976;7.594;2023-05-16T07:33:48;9.50;;;1.90;;
20888;SDS011;10604;51.976;7.594;2023-05-16T07:36:13;8.73;;;1.90;;
20888;SDS011;10604;51.976;7.594;2023-05-16T07:38:39;8.83;;;2.10;;
20888;SDS011;10604;51.976;7.594;2023-05-16T07:41:04;8.30;;;2.15;;
20888;SDS011;10604;51.976;7.594;2023-05-16T07:43:30;7.47;;;1.90;;
20888;SDS011;10604;51.976;7.594;2023-05-16T07:45:59;7.10;;;1.98;;
20888;SDS011;10604;51.976;7.594;2023-05-16T07:48:24;6.95;;;1.40;;
20888;SDS011;10604;51.976;7.594;2023-05-16T07:50:50;6.70;;;1.80;;
20888;SDS011;10604;51.976;7.594;2023-05-16T07:53:16;6.97;;;1.83;;
20888;SDS011;10604;51.976;7.594;2023-05-16T07:55:41;6.97;;;1.77;;
20888;SDS011;10604;51.976;7.594;2023-05-16T07:58:07;7.07;;;1.77;;
20888;SDS011;10604;51.976;7.594;2023-05-16T08:00:32;6.87;;;1.90;;
20888;SDS011;10604;51.976;7.594;2023-05-16T08:02:58;5.07;;;1.40;;
20888;SDS011;10604;51.976;7.594;2023-05-16T08:05:23;6.07;;;1.52;;
20888;SDS011;10604;51.976;7.594;2023-05-16T08:07:49;7.37;;;1.53;;
20888;SDS011;10604;51.976;7.594;2023-05-16T08:10:14;8.80;;;1.73;;
20888;SDS011;10604;51.976;7.594;2023-05-16T08:12:40;7.35;;;1.75;;
20888;SDS011;10604;51.976;7.594;2023-05-16T08:15:05;6.93;;;1.60;;
20888;SDS011;10604;51.976;7.594;2023-05-16T08:17:31;8.85;;;1.70;;
20888;SDS011;10604;51.976;7.594;2023-05-16T08:19:57;6.83;;;1.60;;
20888;SDS011;10604;51.976;7.594;2023-05-16T08:22:23;8.80;;;2.00;;
20888;SDS011;10604;51.976;7.594;2023-05-16T08:24:49;9.75;;;1.60;;
20888;SDS011;10604;51.976;7.594;2023-05-16T08:27:15;5.38;;;1.75;;
20888;SDS011;10604;51.976;7.594;2023-05-16T08:29:40;7.13;;;1.67;;
20888;SDS011;10604;51.976;7.594;2023-05-16T08:32:07;4.90;;;1.50;;
20888;SDS011;10604;51.976;7.594;2023-05-16T08:34:32;6.38;;;1.58;;
20888;SDS011;10604;51.976;7.594;2023-05-16T08:36:58;6.00;;;1.70;;
20888;SDS011;10604;51.976;7.594;2023-05-16T08:39:24;4.97;;;1.50;;
20888;SDS011;10604;51.976;7.594;2023-05-16T08:41:50;6.43;;;1.65;;
20888;SDS011;10604;51.976;7.594;2023-05-16T08:44:15;4.05;;;1.30;;
20888;SDS011;10604;51.976;7.594;2023-05-16T08:46:49;8.00;;;1.63;;
20888;SDS011;10604;51.976;7.594;2023-05-16T08:49:16;7.30;;;1.60;;
20888;SDS011;10604;51.976;7.594;2023-05-16T08:51:42;4.95;;;1.40;;
20888;SDS011;10604;51.976;7.594;2023-05-16T08:54:11;5.60;;;1.90;;
20888;SDS011;10604;51.976;7.594;2023-05-16T08:56:40;7.00;;;1.60;;
20888;SDS011;10604;51.976;7.594;2023-05-16T08:59:06;7.87;;;1.67;;
20888;SDS011;10604;51.976;7.594;2023-05-16T09:01:32;5.05;;;1.40;;
20888;SDS011;10604;51.976;7.594;2023-05-16T09:03:58;6.00;;;1.33;;
20888;SDS011;10604;51.976;7.594;2023-05-16T09:06:24;4.65;;;1.20;;
20888;SDS011;10604;51.976;7.594;2023-05-16T09:08:51;4.47;;;1.13;;
20888;SDS011;10604;51.976;7.594;2023-05-16T09:11:17;6.30;;;1.65;;
20888;SDS011;10604;51.976;7.594;2023-05-16T09:13:43;5.20;;;1.70;;
20888;SDS011;10604;51.976;7.594;2023-05-16T09:18:35;4.13;;;1.50;;
20888;SDS011;10604;51.976;7.594;2023-05-16T09:21:02;5.13;;;1.52;;
20888;SDS011;10604;51.976;7.594;2023-05-16T09:23:28;4.50;;;1.30;;
20888;SDS011;10604;51.976;7.594;2023-05-16T09:25:54;5.23;;;1.40;;
20888;SDS011;10604;51.976;7.594;2023-05-16T09:28:21;4.07;;;1.15;;
20888;SDS011;10604;51.976;7.594;2023-05-16T09:30:46;6.77;;;1.27;;
20888;SDS011;10604;51.976;7.594;2023-05-16T09:33:12;4.70;;;1.50;;
20888;SDS011;10604;51.976;7.594;2023-05-16T09:35:38;5.95;;;1.52;;
20888;SDS011;10604;51.976;7.594;2023-05-16T09:38:03;5.20;;;1.50;;
20888;SDS011;10604;51.976;7.594;2023-05-16T09:40:29;5.10;;;1.53;;
20888;SDS011;10604;51.976;7.594;2023-05-16T09:43:04;5.50;;;1.37;;
20888;SDS011;10604;51.976;7.594;2023-05-16T09:45:31;6.20;;;1.50;;
20888;SDS011;10604;51.976;7.594;2023-05-16T09:48:04;4.90;;;1.30;;
20888;SDS011;10604;51.976;7.594;2023-05-16T09:50:32;4.10;;;1.40;;
20888;SDS011;10604;51.976;7.594;2023-05-16T09:52:59;3.70;;;1.27;;
20888;SDS011;10604;51.976;7.594;2023-05-16T09:55:25;4.95;;;1.50;;
20888;SDS011;10604;51.976;7.594;2023-05-16T09:57:50;3.87;;;1.20;;
20888;SDS011;10604;51.976;7.594;2023-05-16T10:00:16;5.88;;;1.48;;
20888;SDS011;10604;51.976;7.594;2023-05-16T10:02:42;4.50;;;1.48;;
20888;SDS011;10604;51.976;7.594;2023-05-16T10:05:08;3.30;;;1.13;;
20888;SDS011;10604;51.976;7.594;2023-05-16T10:07:33;5.93;;;1.50;;
20888;SDS011;10604;51.976;7.594;2023-05-16T10:09:59;3.30;;;1.13;;
20888;SDS011;10604;51.976;7.594;2023-05-16T10:12:29;3.15;;;1.15;;
20888;SDS011;10604;51.976;7.594;2023-05-16T10:14:57;4.57;;;1.40;;
20888;SDS011;10604;51.976;7.594;2023-05-16T10:17:25;6.45;;;1.40;;
20888;SDS011;10604;51.976;7.594;2023-05-16T10:19:53;6.15;;;1.15;;
20888;SDS011;10604;51.976;7.594;2023-05-16T10:22:19;2.37;;;1.10;;
20888;SDS011;10604;51.976;7.594;2023-05-16T10:24:49;2.90;;;1.17;;
20888;SDS011;10604;51.976;7.594;2023-05-16T10:27:30;2.65;;;1.15;;
20888;SDS011;10604;51.976;7.594;2023-05-16T10:29:56;4.10;;;1.30;;
20888;SDS011;10604;51.976;7.594;2023-05-16T10:32:22;4.70;;;1.10;;
20888;SDS011;10604;51.976;7.594;2023-05-16T10:34:51;4.57;;;1.30;;
20888;SDS011;10604;51.976;7.594;2023-05-16T10:37:17;4.70;;;1.35;;
20888;SDS011;10604;51.976;7.594;2023-05-16T10:39:42;3.77;;;1.23;;
20888;SDS011;10604;51.976;7.594;2023-05-16T10:42:09;3.15;;;1.20;;
20888;SDS011;10604;51.976;7.594;2023-05-16T10:44:35;2.97;;;1.40;;
20888;SDS011;10604;51.976;7.594;2023-05-16T10:47:03;5.00;;;1.23;;
20888;SDS011;10604;51.976;7.594;2023-05-16T10:49:29;4.85;;;1.30;;
20888;SDS011;10604;51.976;7.594;2023-05-16T10:52:02;4.55;;;1.30;;
20888;SDS011;10604;51.976;7.594;2023-05-16T10:54:38;5.72;;;1.30;;
20888;SDS011;10604;51.976;7.594;2023-05-16T10:57:15;4.60;;;1.30;;
20888;SDS011;10604;51.976;7.594;2023-05-16T10:59:46;4.32;;;1.50;;
20888;SDS011;10604;51.976;7.594;2023-05-16T11:02:22;4.00;;;1.15;;
20888;SDS011;10604;51.976;7.594;2023-05-16T11:04:50;3.42;;;1.20;;
20888;SDS011;10604;51.976;7.594;2023-05-16T11:07:18;4.53;;;1.42;;
20888;SDS011;10604;51.976;7.594;2023-05-16T11:09:45;4.57;;;1.10;;
20888;SDS011;10604;51.976;7.594;2023-05-16T11:12:30;4.07;;;1.20;;
20888;SDS011;10604;51.976;7.594;2023-05-16T11:15:00;2.13;;;0.97;;
20888;SDS011;10604;51.976;7.594;2023-05-16T11:18:04;3.43;;;1.10;;
20888;SDS011;10604;51.976;7.594;2023-05-16T11:20:32;3.47;;;1.17;;
20888;SDS011;10604;51.976;7.594;2023-05-16T11:25:40;3.42;;;1.00;;
20888;SDS011;10604;51.976;7.594;2023-05-16T11:28:06;4.70;;;1.10;;
20888;SDS011;10604;51.976;7.594;2023-05-16T11:30:33;3.47;;;1.20;;
20888;SDS011;10604;51.976;7.594;2023-05-16T11:32:59;3.45;;;1.13;;
20888;SDS011;10604;51.976;7.594;2023-05-16T11:35:24;2.87;;;1.10;;
20888;SDS011;10604;51.976;7.594;2023-05-16T11:37:50;3.43;;;1.20;;
20888;SDS011;10604;51.976;7.594;2023-05-16T11:40:15;3.28;;;1.27;;
20888;SDS011;10604;51.976;7.594;2023-05-16T11:42:42;3.07;;;1.20;;
20888;SDS011;10604;51.976;7.594;2023-05-16T11:45:10;5.70;;;1.20;;
20888;SDS011;10604;51.976;7.594;2023-05-16T11:47:39;5.55;;;1.30;;
20888;SDS011;10604;51.976;7.594;2023-05-16T11:50:15;2.97;;;1.25;;
20888;SDS011;10604;51.976;7.594;2023-05-16T12:07:37;1.50;;;0.60;;
20888;SDS011;10604;51.976;7.594;2023-05-16T12:10:06;4.80;;;0.90;;
20888;SDS011;10604;51.976;7.594;2023-05-16T12:12:33;2.97;;;1.15;;
20888;SDS011;10604;51.976;7.594;2023-05-16T12:15:00;3.63;;;1.10;;
20888;SDS011;10604;51.976;7.594;2023-05-16T12:17:30;2.65;;;1.08;;
20888;SDS011;10604;51.976;7.594;2023-05-16T12:19:56;4.30;;;1.27;;
20888;SDS011;10604;51.976;7.594;2023-05-16T12:22:21;3.13;;;1.10;;
20888;SDS011;10604;51.976;7.594;2023-05-16T12:24:49;3.63;;;1.10;;
20888;SDS011;10604;51.976;7.594;2023-05-16T12:27:21;4.27;;;1.30;;
20888;SDS011;10604;51.976;7.594;2023-05-16T12:29:48;2.85;;;1.15;;
20888;SDS011;10604;51.976;7.594;2023-05-16T12:32:17;3.03;;;1.27;;
20888;SDS011;10604;51.976;7.594;2023-05-16T12:34:48;3.22;;;1.00;;
20888;SDS011;10604;51.976;7.594;2023-05-16T12:37:15;2.50;;;0.90;;
20888;SDS011;10604;51.976;7.594;2023-05-16T12:39:40;3.23;;;1.07;;
20888;SDS011;10604;51.976;7.594;2023-05-16T12:42:06;4.32;;;1.00;;
20888;SDS011;10604;51.976;7.594;2023-05-16T12:44:32;3.15;;;1.00;;
20888;SDS011;10604;51.976;7.594;2023-05-16T12:46:57;2.07;;;1.10;;
20888;SDS011;10604;51.976;7.594;2023-05-16T12:49:23;3.45;;;1.05;;
20888;SDS011;10604;51.976;7.594;2023-05-16T12:51:49;3.15;;;1.10;;
20888;SDS011;10604;51.976;7.594;2023-05-16T12:54:16;3.53;;;1.10;;
20888;SDS011;10604;51.976;7.594;2023-05-16T12:56:42;3.83;;;1.08;;
20888;SDS011;10604;51.976;7.594;2023-05-16T12:59:08;4.63;;;1.40;;
20888;SDS011;10604;51.976;7.594;2023-05-16T13:01:34;3.50;;;1.10;;
20888;SDS011;10604;51.976;7.594;2023-05-16T13:04:00;3.70;;;1.05;;
20888;SDS011;10604;51.976;7.594;2023-05-16T13:06:26;3.72;;;1.30;;
20888;SDS011;10604;51.976;7.594;2023-05-16T13:08:52;2.63;;;1.20;;
20888;SDS011;10604;51.976;7.594;2023-05-16T13:11:18;4.47;;;1.40;;
20888;SDS011;10604;51.976;7.594;2023-05-16T13:13:43;4.40;;;1.30;;
20888;SDS011;10604;51.976;7.594;2023-05-16T13:16:09;5.70;;;1.37;;
20888;SDS011;10604;51.976;7.594;2023-05-16T13:18:35;3.35;;;1.20;;
20888;SDS011;10604;51.976;7.594;2023-05-16T13:21:01;3.37;;;1.30;;
20888;SDS011;10604;51.976;7.594;2023-05-16T13:23:28;2.85;;;1.08;;
20888;SDS011;10604;51.976;7.594;2023-05-16T13:25:54;3.20;;;1.10;;
20888;SDS011;10604;51.976;7.594;2023-05-16T13:28:19;1.97;;;1.17;;
20888;SDS011;10604;51.976;7.594;2023-05-16T13:30:45;4.13;;;1.38;;
20888;SDS011;10604;51.976;7.594;2023-05-16T13:33:10;4.23;;;1.40;;
20888;SDS011;10604;51.976;7.594;2023-05-16T13:35:36;3.40;;;1.20;;
20888;SDS011;10604;51.976;7.594;2023-05-16T13:38:02;2.83;;;1.00;;
20888;SDS011;10604;51.976;7.594;2023-05-16T13:40:27;2.87;;;1.10;;
20888;SDS011;10604;51.976;7.594;2023-05-16T13:42:53;4.65;;;1.35;;
20888;SDS011;10604;51.976;7.594;2023-05-16T13:45:19;6.33;;;1.30;;
20888;SDS011;10604;51.976;7.594;2023-05-16T13:47:44;3.30;;;1.03;;
20888;SDS011;10604;51.976;7.594;2023-05-16T13:50:09;3.37;;;1.20;;
20888;SDS011;10604;51.976;7.594;2023-05-16T13:52:36;3.75;;;1.15;;
20888;SDS011;10604;51.976;7.594;2023-05-16T13:55:02;3.35;;;1.10;;
20888;SDS011;10604;51.976;7.594;2023-05-16T13:57:28;3.42;;;1.20;;
20888;SDS011;10604;51.976;7.594;2023-05-16T13:59:54;5.70;;;1.20;;
20888;SDS011;10604;51.976;7.594;2023-05-16T14:02:20;4.22;;;1.20;;
20888;SDS011;10604;51.976;7.594;2023-05-16T14:04:46;3.70;;;1.20;;
20888;SDS011;10604;51.976;7.594;2023-05-16T14:07:12;5.35;;;1.27;;
20888;SDS011;10604;51.976;7.594;2023-05-16T14:09:37;3.80;;;1.30;;
20888;SDS011;10604;51.976;7.594;2023-05-16T14:12:06;4.97;;;1.50;;
20888;SDS011;10604;51.976;7.594;2023-05-16T14:14:32;3.93;;;1.40;;
20888;SDS011;10604;51.976;7.594;2023-05-16T14:17:01;4.72;;;1.45;;
20888;SDS011;10604;51.976;7.594;2023-05-16T14:19:27;3.85;;;1.38;;
20888;SDS011;10604;51.976;7.594;2023-05-16T14:21:53;3.15;;;1.15;;
20888;SDS011;10604;51.976;7.594;2023-05-16T14:24:19;3.63;;;1.23;;
20888;SDS011;10604;51.976;7.594;2023-05-16T14:26:45;3.08;;;1.33;;
20888;SDS011;10604;51.976;7.594;2023-05-16T14:29:10;3.37;;;1.23;;
20888;SDS011;10604;51.976;7.594;2023-05-16T14:31:36;5.05;;;1.60;;
20888;SDS011;10604;51.976;7.594;2023-05-16T14:34:02;3.57;;;1.40;;
20888;SDS011;10604;51.976;7.594;2023-05-16T14:36:28;3.75;;;1.20;;
20888;SDS011;10604;51.976;7.594;2023-05-16T14:38:53;4.93;;;1.60;;
20888;SDS011;10604;51.976;7.594;2023-05-16T14:41:18;4.53;;;1.20;;
20888;SDS011;10604;51.976;7.594;2023-05-16T14:43:44;4.63;;;1.47;;
20888;SDS011;10604;51.976;7.594;2023-05-16T14:46:10;4.55;;;1.30;;
20888;SDS011;10604;51.976;7.594;2023-05-16T14:48:36;4.23;;;1.60;;
20888;SDS011;10604;51.976;7.594;2023-05-16T14:51:01;3.50;;;1.58;;
20888;SDS011;10604;51.976;7.594;2023-05-16T14:53:28;3.78;;;1.45;;
20888;SDS011;10604;51.976;7.594;2023-05-16T14:55:53;4.28;;;1.60;;
20888;SDS011;10604;51.976;7.594;2023-05-16T14:58:18;4.87;;;1.80;;
20888;SDS011;10604;51.976;7.594;2023-05-16T15:00:44;5.77;;;1.50;;
20888;SDS011;10604;51.976;7.594;2023-05-16T15:03:09;5.70;;;1.87;;
20888;SDS011;10604;51.976;7.594;2023-05-16T15:05:35;3.92;;;1.45;;
20888;SDS011;10604;51.976;7.594;2023-05-16T15:08:00;5.93;;;1.60;;
20888;SDS011;10604;51.976;7.594;2023-05-16T15:10:26;3.57;;;1.50;;
20888;SDS011;10604;51.976;7.594;2023-05-16T15:12:51;3.80;;;1.60;;
20888;SDS011;10604;51.976;7.594;2023-05-16T15:15:17;4.28;;;1.50;;